Time;durP1;ratioP1;P1;durP2;ratioP2;P2;SDS_P1;SDS_P2;PMS_P1;PMS_P2;Temp;Humidity;BMP_temperature;BMP_pressure;BME280_temperature;BME280_humidity;BME280_pressure;Samples;Min_cycle;Max_cycle;Signal;HPM_P1;HPM_P2
2021/07/29 00:00:26;;;;;;;14.48;8.43;;;;;;;;;;5064816;28;20484;-73
2021/07/29 00:02:51;;;;;;;13.10;8.43;;;;;;;;;;5049488;28;20473;-73
2021/07/29 00:05:17;;;;;;;10.32;7.97;;;;;;;;;;5047954;28;20033;-74
2021/07/29 00:07:42;;;;;;;11.93;8.60;;;;;;;;;;5050247;28;20035;-73
2021/07/29 00:10:08;;;;;;;14.35;8.70;;;;;;;;;;5064883;28;20091;-72
2021/07/29 00:12:34;;;;;;;13.88;8.25;;;;;;;;;;5064554;28;20499;-73
2021/07/29 00:15:00;;;;;;;14.25;8.07;;;;;;;;;;5064777;28;20025;-73
2021/07/29 00:20:10;;;;;;;12.80;7.82;;;;;;;;;;5049517;28;20120;-74
2021/07/29 00:22:36;;;;;;;14.30;7.88;;;;;;;;;;5049455;28;20024;-73
2021/07/29 00:25:06;;;;;;;12.27;8.73;;;;;;;;;;5049077;28;20044;-74
2021/07/29 00:27:34;;;;;;;16.92;8.52;;;;;;;;;;5064117;28;20537;-74
2021/07/29 00:29:59;;;;;;;15.18;8.10;;;;;;;;;;5047831;28;20245;-74
2021/07/29 00:32:25;;;;;;;12.07;7.07;;;;;;;;;;5049191;28;20033;-73
2021/07/29 00:34:50;;;;;;;11.63;7.97;;;;;;;;;;5064481;28;20482;-74
2021/07/29 00:37:15;;;;;;;12.38;7.80;;;;;;;;;;5064299;28;20052;-73
2021/07/29 00:39:41;;;;;;;11.52;8.38;;;;;;;;;;5064543;28;20028;-73
2021/07/29 00:42:06;;;;;;;13.32;8.30;;;;;;;;;;5049122;28;20452;-73
2021/07/29 00:44:34;;;;;;;12.77;8.13;;;;;;;;;;5047478;28;20032;-73
2021/07/29 00:47:01;;;;;;;15.30;8.50;;;;;;;;;;5067634;28;20017;-73
2021/07/29 00:49:27;;;;;;;12.27;8.38;;;;;;;;;;5068616;28;20048;-71
2021/07/29 00:51:53;;;;;;;14.63;8.85;;;;;;;;;;5053786;28;20032;-73
2021/07/29 00:54:18;;;;;;;13.98;8.63;;;;;;;;;;5034732;28;20029;-73
2021/07/29 00:56:45;;;;;;;11.68;8.32;;;;;;;;;;5053272;28;20423;-73
2021/07/29 00:59:12;;;;;;;13.85;8.70;;;;;;;;;;5052926;28;20464;-73
2021/07/29 01:01:37;;;;;;;16.77;7.78;;;;;;;;;;5053070;28;20545;-72
2021/07/29 01:04:03;;;;;;;13.43;7.60;;;;;;;;;;5053386;28;20096;-73
2021/07/29 01:06:28;;;;;;;12.40;7.75;;;;;;;;;;5052770;28;20427;-74
2021/07/29 01:09:03;;;;;;;12.18;8.85;;;;;;;;;;5052836;28;20029;-73
2021/07/29 01:11:29;;;;;;;11.00;8.70;;;;;;;;;;5051314;28;20063;-74
2021/07/29 01:13:54;;;;;;;10.43;8.38;;;;;;;;;;5052915;28;20056;-74
2021/07/29 01:16:20;;;;;;;10.23;8.05;;;;;;;;;;5068006;28;20547;-73
2021/07/29 01:18:45;;;;;;;15.05;8.38;;;;;;;;;;5052778;28;20025;-72
2021/07/29 01:21:11;;;;;;;11.65;7.65;;;;;;;;;;5051396;28;20067;-72
2021/07/29 01:23:36;;;;;;;11.57;8.27;;;;;;;;;;5050956;28;20399;-73
2021/07/29 01:26:02;;;;;;;12.00;8.13;;;;;;;;;;5067850;28;20033;-73
2021/07/29 01:28:27;;;;;;;14.00;7.80;;;;;;;;;;5052380;28;20029;-74
2021/07/29 01:30:52;;;;;;;10.50;7.45;;;;;;;;;;5067813;28;20028;-74
2021/07/29 01:33:19;;;;;;;13.13;8.05;;;;;;;;;;5052428;28;20013;-73
2021/07/29 01:35:44;;;;;;;9.95;7.35;;;;;;;;;;5052268;28;20028;-74
2021/07/29 01:38:10;;;;;;;12.50;7.63;;;;;;;;;;5052266;28;20412;-73
2021/07/29 01:40:35;;;;;;;23.45;8.25;;;;;;;;;;5067493;28;20384;-73
2021/07/29 01:43:00;;;;;;;16.85;7.90;;;;;;;;;;5067485;28;20025;-73
2021/07/29 01:45:26;;;;;;;11.50;7.57;;;;;;;;;;5067307;28;20464;-73
2021/07/29 01:47:53;;;;;;;12.27;7.88;;;;;;;;;;5051003;28;20447;-73
2021/07/29 01:50:18;;;;;;;11.27;7.30;;;;;;;;;;5052112;28;20043;-74
2021/07/29 01:52:44;;;;;;;11.00;7.13;;;;;;;;;;5067617;28;20033;-73
2021/07/29 01:55:09;;;;;;;12.15;7.95;;;;;;;;;;5052294;28;20021;-74
2021/07/29 01:57:36;;;;;;;12.60;7.68;;;;;;;;;;5051501;28;20103;-74
2021/07/29 02:00:03;;;;;;;7.93;7.13;;;;;;;;;;5067478;28;20024;-73
2021/07/29 02:02:29;;;;;;;11.60;7.65;;;;;;;;;;5051625;28;20029;-73
2021/07/29 02:04:54;;;;;;;10.18;7.65;;;;;;;;;;5067088;28;20025;-72
2021/07/29 02:07:20;;;;;;;10.00;7.80;;;;;;;;;;5051780;28;20101;-73
2021/07/29 02:09:45;;;;;;;11.10;8.40;;;;;;;;;;5050206;28;20025;-73
2021/07/29 02:12:11;;;;;;;13.45;8.00;;;;;;;;;;5066904;28;20027;-73
2021/07/29 02:14:36;;;;;;;9.95;7.65;;;;;;;;;;5049950;28;20052;-74
2021/07/29 02:17:02;;;;;;;12.13;8.07;;;;;;;;;;5051939;28;20094;-74
2021/07/29 02:19:28;;;;;;;14.63;7.97;;;;;;;;;;5051318;28;20040;-73
2021/07/29 02:21:54;;;;;;;11.77;7.90;;;;;;;;;;5051657;28;20032;-73
2021/07/29 02:24:20;;;;;;;12.38;7.95;;;;;;;;;;5051522;28;20021;-74
2021/07/29 02:26:45;;;;;;;14.98;8.55;;;;;;;;;;5066759;28;20112;-73
2021/07/29 02:29:11;;;;;;;14.40;8.65;;;;;;;;;;5050478;28;20108;-73
2021/07/29 02:31:36;;;;;;;20.30;9.02;;;;;;;;;;5051421;28;20423;-73
2021/07/29 02:34:02;;;;;;;10.02;8.50;;;;;;;;;;5051337;28;20023;-74
2021/07/29 02:36:27;;;;;;;12.13;8.10;;;;;;;;;;5051211;28;20616;-74
2021/07/29 02:38:53;;;;;;;19.13;9.20;;;;;;;;;;5051269;28;20045;-73
2021/07/29 02:41:19;;;;;;;18.48;8.43;;;;;;;;;;5049958;28;20051;-73
2021/07/29 02:43:45;;;;;;;12.02;8.25;;;;;;;;;;5050932;28;20048;-74
2021/07/29 02:46:11;;;;;;;11.50;7.78;;;;;;;;;;5066581;28;20021;-72
2021/07/29 02:48:37;;;;;;;10.73;8.88;;;;;;;;;;5066192;28;20029;-73
2021/07/29 02:51:03;;;;;;;14.02;8.65;;;;;;;;;;5051022;28;20029;-73
2021/07/29 02:53:32;;;;;;;10.23;8.23;;;;;;;;;;5050775;28;20029;-74
2021/07/29 02:55:59;;;;;;;12.88;8.38;;;;;;;;;;5066198;28;20092;-73
2021/07/29 02:58:25;;;;;;;12.05;8.10;;;;;;;;;;5049140;28;20025;-72
2021/07/29 03:00:51;;;;;;;13.77;8.63;;;;;;;;;;5050508;28;20056;-73
2021/07/29 03:03:17;;;;;;;9.20;7.38;;;;;;;;;;5066113;28;20036;-73
2021/07/29 03:05:42;;;;;;;10.80;7.80;;;;;;;;;;5049186;28;20024;-73
2021/07/29 03:08:08;;;;;;;16.15;9.75;;;;;;;;;;5048630;28;20025;-74
2021/07/29 03:10:33;;;;;;;14.85;8.82;;;;;;;;;;5050423;28;20021;-73
2021/07/29 03:13:01;;;;;;;12.57;7.63;;;;;;;;;;5050765;28;20365;-73
2021/07/29 03:15:30;;;;;;;13.65;8.50;;;;;;;;;;5065845;28;20075;-73
2021/07/29 03:17:55;;;;;;;10.80;8.27;;;;;;;;;;5065849;28;20527;-73
2021/07/29 03:20:21;;;;;;;22.00;9.55;;;;;;;;;;5065788;28;20106;-72
2021/07/29 03:22:47;;;;;;;12.10;7.68;;;;;;;;;;5050177;28;20016;-73
2021/07/29 03:25:12;;;;;;;12.63;7.18;;;;;;;;;;5050213;28;20445;-72
2021/07/29 03:27:38;;;;;;;10.48;7.40;;;;;;;;;;5065688;28;20033;-73
2021/07/29 03:30:04;;;;;;;10.43;6.78;;;;;;;;;;5050250;28;20078;-72
2021/07/29 03:32:30;;;;;;;14.60;7.43;;;;;;;;;;5065192;28;20028;-73
2021/07/29 03:34:55;;;;;;;12.85;7.32;;;;;;;;;;5050176;28;20354;-73
2021/07/29 03:37:21;;;;;;;12.60;6.93;;;;;;;;;;5065107;28;20542;-73
2021/07/29 03:39:46;;;;;;;13.15;6.85;;;;;;;;;;5049875;28;20056;-72
2021/07/29 03:42:12;;;;;;;12.20;7.38;;;;;;;;;;5050259;28;20384;-72
2021/07/29 03:44:37;;;;;;;14.88;7.68;;;;;;;;;;5049698;28;20442;-73
2021/07/29 03:47:04;;;;;;;10.00;7.35;;;;;;;;;;5050094;28;20420;-73
2021/07/29 03:49:33;;;;;;;11.60;7.10;;;;;;;;;;5065233;28;20035;-72
2021/07/29 03:51:59;;;;;;;15.93;6.93;;;;;;;;;;5048380;28;20116;-73
2021/07/29 03:54:25;;;;;;;14.00;6.75;;;;;;;;;;5048395;28;20411;-73
2021/07/29 03:56:50;;;;;;;15.77;7.57;;;;;;;;;;5048218;28;20071;-72
2021/07/29 03:59:16;;;;;;;12.85;7.93;;;;;;;;;;5064974;28;20029;-73
2021/07/29 04:01:41;;;;;;;10.40;6.75;;;;;;;;;;5047975;28;20017;-73
2021/07/29 04:04:07;;;;;;;25.85;8.43;;;;;;;;;;5064747;28;20504;-73
2021/07/29 04:06:32;;;;;;;12.15;8.43;;;;;;;;;;5064622;28;20021;-73
2021/07/29 04:08:58;;;;;;;12.55;8.27;;;;;;;;;;5048259;28;20037;-72
2021/07/29 04:11:23;;;;;;;11.10;7.88;;;;;;;;;;5050338;28;20176;-72
2021/07/29 04:13:49;;;;;;;22.02;11.30;;;;;;;;;;5049767;28;20112;-73
2021/07/29 04:16:14;;;;;;;13.13;7.90;;;;;;;;;;5050256;28;20053;-72
2021/07/29 04:18:42;;;;;;;10.18;8.05;;;;;;;;;;5048027;28;20354;-73
2021/07/29 04:21:14;;;;;;;10.48;6.82;;;;;;;;;;5064709;28;20090;-73
2021/07/29 04:23:39;;;;;;;14.00;7.53;;;;;;;;;;5049238;28;20028;-73
2021/07/29 04:26:05;;;;;;;9.88;7.75;;;;;;;;;;5064624;28;20380;-73
2021/07/29 04:28:30;;;;;;;16.75;9.23;;;;;;;;;;5064395;28;20393;-73
2021/07/29 04:30:56;;;;;;;11.20;7.57;;;;;;;;;;5049289;28;20056;-74
2021/07/29 04:33:21;;;;;;;12.40;7.45;;;;;;;;;;5064633;28;20074;-73
2021/07/29 04:35:47;;;;;;;13.27;7.72;;;;;;;;;;5047756;28;20443;-74
2021/07/29 04:38:12;;;;;;;13.40;8.88;;;;;;;;;;5064418;28;20053;-74
2021/07/29 04:40:38;;;;;;;11.90;7.78;;;;;;;;;;5048852;28;20377;-73
2021/07/29 04:43:04;;;;;;;16.55;8.27;;;;;;;;;;5064307;28;20111;-74
2021/07/29 04:45:29;;;;;;;15.13;8.95;;;;;;;;;;5047656;28;20032;-72
2021/07/29 04:47:55;;;;;;;12.00;8.32;;;;;;;;;;5064576;28;20508;-73
2021/07/29 04:50:21;;;;;;;18.88;8.55;;;;;;;;;;5064313;28;20021;-73
2021/07/29 04:52:50;;;;;;;11.82;7.80;;;;;;;;;;5064195;28;20074;-73
2021/07/29 04:55:16;;;;;;;11.73;7.75;;;;;;;;;;5048794;28;20051;-73
2021/07/29 04:57:41;;;;;;;11.82;7.55;;;;;;;;;;5064035;28;20031;-75
2021/07/29 05:00:08;;;;;;;11.05;7.38;;;;;;;;;;5064209;28;20025;-73
2021/07/29 05:02:33;;;;;;;15.88;7.70;;;;;;;;;;5048475;28;20488;-73
2021/07/29 05:04:59;;;;;;;14.30;7.68;;;;;;;;;;5064090;28;20025;-73
2021/07/29 05:07:24;;;;;;;11.63;7.53;;;;;;;;;;5048780;28;20025;-74
2021/07/29 05:09:50;;;;;;;12.05;7.60;;;;;;;;;;5047208;28;20333;-73
2021/07/29 05:12:15;;;;;;;16.02;9.43;;;;;;;;;;5048994;28;20535;-73
2021/07/29 05:14:41;;;;;;;12.30;7.30;;;;;;;;;;5047079;28;20407;-72
2021/07/29 05:17:07;;;;;;;10.90;8.20;;;;;;;;;;5047439;28;20256;-73
2021/07/29 05:19:32;;;;;;;12.75;7.90;;;;;;;;;;5063722;28;20032;-74
2021/07/29 05:21:58;;;;;;;13.82;7.55;;;;;;;;;;5047386;28;20056;-74
2021/07/29 05:24:24;;;;;;;14.38;7.63;;;;;;;;;;5048531;28;20112;-74
2021/07/29 05:26:49;;;;;;;9.52;7.13;;;;;;;;;;5063826;28;20028;-74
2021/07/29 05:29:15;;;;;;;10.02;6.68;;;;;;;;;;5063587;28;20086;-73
2021/07/29 05:31:43;;;;;;;11.88;7.63;;;;;;;;;;5049051;28;20391;-73
2021/07/29 05:34:12;;;;;;;12.27;7.70;;;;;;;;;;5067274;28;20065;-74
2021/07/29 05:36:38;;;;;;;17.35;7.60;;;;;;;;;;5067370;28;20048;-74
2021/07/29 05:39:04;;;;;;;16.75;7.80;;;;;;;;;;5067327;28;20057;-73
2021/07/29 05:41:30;;;;;;;12.88;7.78;;;;;;;;;;5052239;28;20036;-75
2021/07/29 05:43:56;;;;;;;15.07;7.38;;;;;;;;;;5051894;28;20033;-73
2021/07/29 05:46:22;;;;;;;14.23;7.03;;;;;;;;;;5052124;28;20039;-74
2021/07/29 05:48:48;;;;;;;14.85;7.65;;;;;;;;;;5050446;28;20057;-74
2021/07/29 05:51:13;;;;;;;22.67;8.90;;;;;;;;;;5067038;28;20063;-74
2021/07/29 05:53:39;;;;;;;12.60;8.02;;;;;;;;;;5052018;28;20051;-73
2021/07/29 05:56:04;;;;;;;15.80;9.98;;;;;;;;;;5051877;28;20052;-73
2021/07/29 05:58:30;;;;;;;13.70;7.75;;;;;;;;;;5067198;28;20366;-73
2021/07/29 06:00:55;;;;;;;12.55;8.07;;;;;;;;;;5051484;28;20491;-74
2021/07/29 06:03:22;;;;;;;13.13;8.32;;;;;;;;;;5051816;28;20039;-73
2021/07/29 06:05:48;;;;;;;8.65;5.72;;;;;;;;;;5066829;28;20032;-74
2021/07/29 06:08:13;;;;;;;12.38;6.93;;;;;;;;;;5047042;28;20037;-75
2021/07/29 06:10:39;;;;;;;10.07;7.18;;;;;;;;;;5044098;28;20025;-74
2021/07/29 06:13:06;;;;;;;10.73;5.35;;;;;;;;;;5051525;28;20420;-75
2021/07/29 06:15:31;;;;;;;8.15;5.53;;;;;;;;;;5050730;28;20307;-75
2021/07/29 06:17:59;;;;;;;8.52;5.03;;;;;;;;;;5050763;28;20028;-75
2021/07/29 06:20:25;;;;;;;8.05;5.32;;;;;;;;;;5049686;28;20041;-75
2021/07/29 06:22:51;;;;;;;9.05;4.95;;;;;;;;;;5061698;28;20033;-74
2021/07/29 06:25:18;;;;;;;10.48;5.13;;;;;;;;;;5031062;28;20604;-74
2021/07/29 06:27:49;;;;;;;4.80;4.20;;;;;;;;;;5045956;28;20339;-75
2021/07/29 06:30:16;;;;;;;7.75;4.65;;;;;;;;;;5050066;28;20021;-75
2021/07/29 06:32:42;;;;;;;10.38;4.80;;;;;;;;;;5048942;28;20033;-71
2021/07/29 06:35:08;;;;;;;10.70;4.22;;;;;;;;;;5050340;28;20074;-72
2021/07/29 06:37:33;;;;;;;6.47;4.78;;;;;;;;;;5050107;28;20075;-73
2021/07/29 06:39:59;;;;;;;6.97;4.38;;;;;;;;;;5049114;28;20032;-76
2021/07/29 06:42:25;;;;;;;10.05;4.38;;;;;;;;;;5049065;28;20465;-74
2021/07/29 06:44:51;;;;;;;5.72;3.78;;;;;;;;;;5044869;28;20035;-72
2021/07/29 06:47:24;;;;;;;6.50;3.80;;;;;;;;;;5028848;28;20381;-73
2021/07/29 06:49:50;;;;;;;5.80;3.97;;;;;;;;;;5061490;28;20020;-73
2021/07/29 06:52:16;;;;;;;5.72;4.22;;;;;;;;;;5033671;28;20028;-74
2021/07/29 06:54:42;;;;;;;8.30;4.03;;;;;;;;;;5045123;28;20080;-73
2021/07/29 06:57:08;;;;;;;5.80;3.58;;;;;;;;;;5046292;28;20125;-73
2021/07/29 06:59:35;;;;;;;5.28;3.72;;;;;;;;;;5049190;28;20504;-72
2021/07/29 07:02:01;;;;;;;6.75;4.10;;;;;;;;;;5046578;28;20028;-73
2021/07/29 07:04:28;;;;;;;7.30;3.67;;;;;;;;;;5047046;28;20036;-74
2021/07/29 07:06:54;;;;;;;6.15;4.18;;;;;;;;;;5049966;28;20392;-74
2021/07/29 07:09:21;;;;;;;5.35;3.45;;;;;;;;;;5047227;28;20051;-74
2021/07/29 07:11:47;;;;;;;6.60;3.90;;;;;;;;;;5047754;28;20032;-73
2021/07/29 07:14:12;;;;;;;5.47;3.90;;;;;;;;;;5046437;28;20028;-74
2021/07/29 07:16:38;;;;;;;4.93;3.20;;;;;;;;;;5056362;28;20047;-73
2021/07/29 07:19:05;;;;;;;5.38;3.22;;;;;;;;;;5041521;28;20032;-73
2021/07/29 07:21:32;;;;;;;6.97;3.40;;;;;;;;;;5040897;28;20047;-73
2021/07/29 07:23:58;;;;;;;6.75;3.58;;;;;;;;;;5033401;28;20029;-73
2021/07/29 07:26:25;;;;;;;3.40;3.00;;;;;;;;;;5043951;28;20051;-72
2021/07/29 07:28:51;;;;;;;8.00;3.15;;;;;;;;;;5053336;28;20068;-73
2021/07/29 07:31:18;;;;;;;3.42;3.13;;;;;;;;;;5037214;28;20043;-73
2021/07/29 07:33:44;;;;;;;6.07;3.13;;;;;;;;;;5045174;28;20029;-76
2021/07/29 07:36:09;;;;;;;7.00;3.30;;;;;;;;;;5045043;28;20028;-75
2021/07/29 07:38:35;;;;;;;5.93;3.10;;;;;;;;;;5046456;28;20063;-75
2021/07/29 07:41:06;;;;;;;3.20;2.55;;;;;;;;;;5046009;28;20115;-74
2021/07/29 07:43:32;;;;;;;7.30;3.15;;;;;;;;;;5040137;28;20191;-75
2021/07/29 07:45:58;;;;;;;4.50;3.10;;;;;;;;;;5054859;28;20384;-73
2021/07/29 07:48:25;;;;;;;4.68;2.90;;;;;;;;;;5045314;28;20116;-73
2021/07/29 07:50:54;;;;;;;8.98;3.58;;;;;;;;;;5045491;28;20091;-73
2021/07/29 07:53:28;;;;;;;3.95;2.60;;;;;;;;;;5045499;28;20033;-75
2021/07/29 07:55:55;;;;;;;4.47;3.20;;;;;;;;;;5038274;28;20062;-74
2021/07/29 07:58:21;;;;;;;6.47;2.88;;;;;;;;;;5044138;28;20033;-73
2021/07/29 08:00:47;;;;;;;6.30;3.10;;;;;;;;;;5042072;28;20460;-74
2021/07/29 08:03:12;;;;;;;8.15;3.28;;;;;;;;;;5046818;28;20071;-74
2021/07/29 08:05:39;;;;;;;4.55;3.50;;;;;;;;;;5027404;28;20151;-73
2021/07/29 08:08:09;;;;;;;4.75;3.10;;;;;;;;;;5047262;28;20382;-75
2021/07/29 08:10:35;;;;;;;5.13;3.10;;;;;;;;;;5054626;28;20033;-73
2021/07/29 08:13:05;;;;;;;5.13;2.90;;;;;;;;;;5036813;28;20424;-74
2021/07/29 08:15:31;;;;;;;6.97;3.28;;;;;;;;;;5048224;28;20041;-73
2021/07/29 08:17:56;;;;;;;5.75;3.55;;;;;;;;;;5043561;28;20033;-74
2021/07/29 08:20:24;;;;;;;4.32;3.30;;;;;;;;;;5035605;28;20476;-74
2021/07/29 08:22:53;;;;;;;6.18;3.45;;;;;;;;;;5041633;28;20479;-74
2021/07/29 08:25:23;;;;;;;5.25;3.00;;;;;;;;;;5056522;28;20139;-75
2021/07/29 08:27:50;;;;;;;5.13;2.92;;;;;;;;;;5023081;28;20041;-74
2021/07/29 08:30:16;;;;;;;4.55;2.80;;;;;;;;;;5038699;28;20025;-74
2021/07/29 08:32:43;;;;;;;3.25;2.95;;;;;;;;;;5035833;28;20104;-73
2021/07/29 08:35:10;;;;;;;4.40;3.30;;;;;;;;;;5051972;28;20033;-74
2021/07/29 08:37:36;;;;;;;3.58;2.85;;;;;;;;;;5044746;28;20061;-73
2021/07/29 08:40:03;;;;;;;4.03;2.97;;;;;;;;;;5041941;28;20029;-75
2021/07/29 08:42:30;;;;;;;6.43;3.20;;;;;;;;;;5051982;28;20329;-74
2021/07/29 08:44:56;;;;;;;5.43;3.13;;;;;;;;;;5047046;28;20033;-74
2021/07/29 08:47:26;;;;;;;10.57;3.60;;;;;;;;;;5041908;28;20025;-74
2021/07/29 08:49:55;;;;;;;6.75;3.55;;;;;;;;;;5042695;28;20075;-74
2021/07/29 08:52:22;;;;;;;7.22;3.47;;;;;;;;;;5042408;28;20053;-74
2021/07/29 08:54:50;;;;;;;3.50;2.90;;;;;;;;;;5043164;28;20510;-74
2021/07/29 08:57:17;;;;;;;6.53;3.15;;;;;;;;;;5042582;28;20110;-74
2021/07/29 08:59:42;;;;;;;20.60;4.30;;;;;;;;;;5054662;28;20022;-75
2021/07/29 09:02:27;;;;;;;4.78;3.60;;;;;;;;;;5041483;28;20067;-74
2021/07/29 09:05:06;;;;;;;3.40;2.72;;;;;;;;;;5039094;28;20146;-74
2021/07/29 09:07:33;;;;;;;4.85;2.97;;;;;;;;;;5040651;28;20094;-74
2021/07/29 09:09:58;;;;;;;5.07;3.17;;;;;;;;;;5043480;28;20497;-74
2021/07/29 09:12:25;;;;;;;5.47;3.38;;;;;;;;;;5043261;28;20107;-75
2021/07/29 09:14:52;;;;;;;6.40;3.53;;;;;;;;;;5044579;28;20039;-74
2021/07/29 09:17:19;;;;;;;8.02;3.47;;;;;;;;;;5045495;28;20029;-74
2021/07/29 09:19:50;;;;;;;7.25;3.92;;;;;;;;;;5053387;28;20461;-74
2021/07/29 09:22:29;;;;;;;11.60;3.95;;;;;;;;;;5046560;28;20143;-74
2021/07/29 09:25:04;;;;;;;6.45;3.60;;;;;;;;;;5055203;28;20098;-75
2021/07/29 09:27:38;;;;;;;7.35;3.08;;;;;;;;;;5046530;28;20037;-74
2021/07/29 09:30:24;;;;;;;5.82;3.08;;;;;;;;;;5040659;28;20052;-73
2021/07/29 09:32:59;;;;;;;5.03;3.33;;;;;;;;;;5055604;28;20032;-74
2021/07/29 09:35:48;;;;;;;4.75;2.88;;;;;;;;;;5052414;28;20021;-74
2021/07/29 09:38:31;;;;;;;8.38;3.40;;;;;;;;;;5044797;28;20103;-74
2021/07/29 09:40:59;;;;;;;5.38;3.15;;;;;;;;;;5042382;28;20745;-74
2021/07/29 09:43:29;;;;;;;13.35;3.70;;;;;;;;;;5044976;28;20043;-73
2021/07/29 09:45:56;;;;;;;6.10;3.90;;;;;;;;;;5041091;28;20021;-74
2021/07/29 09:48:22;;;;;;;5.90;3.47;;;;;;;;;;5042190;28;20507;-74
2021/07/29 09:50:54;;;;;;;5.88;3.03;;;;;;;;;;5042089;28;20093;-74
2021/07/29 09:53:20;;;;;;;6.40;4.25;;;;;;;;;;5035948;28;20199;-75
2021/07/29 09:55:46;;;;;;;7.82;3.55;;;;;;;;;;5045565;28;20323;-74
2021/07/29 09:58:11;;;;;;;3.60;3.15;;;;;;;;;;5044487;28;20123;-74
2021/07/29 10:00:38;;;;;;;4.07;3.15;;;;;;;;;;5040817;28;20029;-75
2021/07/29 10:03:08;;;;;;;5.57;3.63;;;;;;;;;;5049243;28;20029;-74
2021/07/29 10:06:01;;;;;;;8.45;3.40;;;;;;;;;;5043437;28;20051;-74
2021/07/29 10:08:50;;;;;;;4.95;3.13;;;;;;;;;;5006939;28;20040;-76
2021/07/29 10:11:20;;;;;;;7.25;3.47;;;;;;;;;;5037426;28;20397;-74
2021/07/29 10:13:46;;;;;;;4.82;2.97;;;;;;;;;;5037119;28;20040;-74
2021/07/29 10:16:17;;;;;;;4.03;2.92;;;;;;;;;;5043076;28;21174;-73
2021/07/29 10:18:52;;;;;;;4.70;3.60;;;;;;;;;;5042701;28;20028;-74
2021/07/29 10:21:24;;;;;;;4.78;3.22;;;;;;;;;;5046282;28;20060;-76
2021/07/29 10:23:54;;;;;;;6.35;3.75;;;;;;;;;;5035720;28;20405;-75
2021/07/29 10:26:21;;;;;;;4.80;3.17;;;;;;;;;;5041517;28;20082;-74
2021/07/29 10:28:47;;;;;;;5.43;3.28;;;;;;;;;;5046107;28;20104;-75
2021/07/29 10:31:14;;;;;;;3.78;3.08;;;;;;;;;;5045756;28;20024;-74
2021/07/29 10:33:41;;;;;;;5.63;3.42;;;;;;;;;;5055247;28;20031;-74
2021/07/29 10:36:08;;;;;;;5.82;3.10;;;;;;;;;;5042894;28;20028;-75
2021/07/29 10:38:39;;;;;;;4.03;2.90;;;;;;;;;;5044307;28;20481;-74
2021/07/29 10:41:23;;;;;;;3.90;2.85;;;;;;;;;;5044024;28;20060;-74
2021/07/29 10:43:49;;;;;;;6.75;2.88;;;;;;;;;;5044947;28;20053;-74
2021/07/29 10:46:14;;;;;;;4.15;3.28;;;;;;;;;;5031391;28;20036;-74
2021/07/29 10:48:51;;;;;;;3.25;2.95;;;;;;;;;;5046050;28;20025;-73
2021/07/29 10:51:18;;;;;;;3.97;3.15;;;;;;;;;;5038759;28;20112;-74
2021/07/29 10:53:48;;;;;;;4.60;3.35;;;;;;;;;;5045332;28;20051;-74
2021/07/29 10:56:21;;;;;;;4.72;3.10;;;;;;;;;;5055288;28;20052;-74
2021/07/29 10:58:52;;;;;;;3.88;3.15;;;;;;;;;;5048667;28;20029;-75
2021/07/29 11:01:19;;;;;;;4.25;3.55;;;;;;;;;;5054658;28;20151;-75
2021/07/29 11:03:54;;;;;;;5.70;3.65;;;;;;;;;;5058110;28;20036;-74
2021/07/29 11:06:23;;;;;;;4.18;3.28;;;;;;;;;;5058610;28;20471;-73
2021/07/29 11:08:51;;;;;;;11.10;3.15;;;;;;;;;;5052334;28;20033;-74
2021/07/29 11:11:18;;;;;;;3.83;2.80;;;;;;;;;;5042180;28;20025;-73
2021/07/29 11:13:50;;;;;;;7.32;3.67;;;;;;;;;;5045676;28;20078;-75
2021/07/29 11:16:17;;;;;;;3.70;3.38;;;;;;;;;;5046606;28;20055;-75
2021/07/29 11:18:57;;;;;;;3.72;2.92;;;;;;;;;;5046390;28;20029;-74
2021/07/29 11:21:23;;;;;;;4.78;3.15;;;;;;;;;;5039152;28;20744;-74
2021/07/29 11:23:49;;;;;;;8.15;3.00;;;;;;;;;;5047352;28;20109;-75
2021/07/29 11:26:14;;;;;;;4.82;3.00;;;;;;;;;;5045541;28;20044;-75
2021/07/29 11:28:40;;;;;;;5.40;3.78;;;;;;;;;;5057532;28;20103;-74
2021/07/29 11:31:06;;;;;;;4.07;2.75;;;;;;;;;;5042532;28;20066;-75
2021/07/29 11:33:31;;;;;;;5.55;3.33;;;;;;;;;;5044677;28;20072;-75
2021/07/29 11:36:07;;;;;;;8.10;3.53;;;;;;;;;;5046846;28;20052;-74
2021/07/29 11:38:34;;;;;;;4.28;3.13;;;;;;;;;;5044320;28;20064;-73
2021/07/29 11:41:03;;;;;;;8.55;3.47;;;;;;;;;;5044348;28;20025;-73
2021/07/29 11:43:33;;;;;;;4.65;3.33;;;;;;;;;;5046960;28;20126;-74
2021/07/29 11:46:10;;;;;;;12.38;3.80;;;;;;;;;;5051912;28;20459;-74
2021/07/29 11:48:36;;;;;;;5.70;3.05;;;;;;;;;;5040067;28;20347;-74
2021/07/29 11:51:11;;;;;;;3.28;2.97;;;;;;;;;;5049395;28;20029;-74
2021/07/29 11:53:41;;;;;;;6.82;3.83;;;;;;;;;;5046093;28;20041;-75
2021/07/29 11:56:09;;;;;;;4.50;3.30;;;;;;;;;;5046606;28;20039;-74
2021/07/29 11:58:36;;;;;;;6.25;4.00;;;;;;;;;;5042864;28;20124;-75
2021/07/29 12:01:15;;;;;;;5.35;3.85;;;;;;;;;;5051877;28;20559;-75
2021/07/29 12:03:48;;;;;;;3.53;3.10;;;;;;;;;;5044084;28;20040;-75
2021/07/29 12:06:15;;;;;;;4.55;3.17;;;;;;;;;;5057980;28;20140;-75
2021/07/29 12:08:42;;;;;;;4.13;3.08;;;;;;;;;;5058199;28;20036;-74
2021/07/29 12:11:08;;;;;;;9.00;3.83;;;;;;;;;;5040282;28;20025;-74
2021/07/29 12:13:38;;;;;;;5.18;3.17;;;;;;;;;;5044168;28;20090;-74
2021/07/29 12:16:03;;;;;;;7.65;3.85;;;;;;;;;;5046254;28;20016;-75
2021/07/29 12:18:29;;;;;;;4.47;3.00;;;;;;;;;;5044753;28;20037;-74
2021/07/29 12:20:56;;;;;;;5.63;3.50;;;;;;;;;;5042272;28;20031;-74
2021/07/29 12:23:23;;;;;;;3.95;3.33;;;;;;;;;;5044442;28;20350;-74
2021/07/29 12:25:50;;;;;;;6.72;4.22;;;;;;;;;;5053659;28;20193;-75
2021/07/29 12:28:43;;;;;;;5.25;3.25;;;;;;;;;;5042415;28;20051;-73
2021/07/29 12:31:29;;;;;;;7.57;3.63;;;;;;;;;;5054004;28;20115;-75
2021/07/29 12:33:59;;;;;;;4.10;3.20;;;;;;;;;;5031605;28;20064;-73
2021/07/29 12:36:46;;;;;;;4.50;3.90;;;;;;;;;;5045182;28;20057;-73
2021/07/29 12:39:31;;;;;;;3.97;3.00;;;;;;;;;;5019286;28;20050;-75
2021/07/29 12:41:56;;;;;;;3.80;3.03;;;;;;;;;;5001617;28;20096;-74
2021/07/29 12:44:22;;;;;;;4.22;3.47;;;;;;;;;;5016841;28;20489;-74
2021/07/29 12:46:48;;;;;;;4.18;2.90;;;;;;;;;;5013529;28;20061;-75
2021/07/29 12:49:16;;;;;;;4.25;2.80;;;;;;;;;;5003948;28;20537;-74
2021/07/29 12:51:44;;;;;;;6.53;2.83;;;;;;;;;;5001020;28;20045;-75
2021/07/29 12:54:10;;;;;;;4.25;3.08;;;;;;;;;;5005428;28;20038;-73
2021/07/29 12:56:37;;;;;;;6.00;3.53;;;;;;;;;;5000113;28;20410;-76
2021/07/29 12:59:03;;;;;;;7.40;3.72;;;;;;;;;;4994814;28;20026;-74
2021/07/29 13:01:28;;;;;;;5.32;3.00;;;;;;;;;;5000557;28;20030;-75
2021/07/29 13:03:55;;;;;;;4.45;3.08;;;;;;;;;;5019357;28;20480;-75
2021/07/29 13:06:21;;;;;;;5.03;3.13;;;;;;;;;;5001876;28;20125;-75
2021/07/29 13:08:47;;;;;;;6.05;3.50;;;;;;;;;;5006086;28;20029;-74
2021/07/29 13:11:14;;;;;;;10.13;3.53;;;;;;;;;;5020854;28;20036;-74
2021/07/29 13:13:40;;;;;;;4.70;3.00;;;;;;;;;;5002953;28;20085;-73
2021/07/29 13:16:06;;;;;;;4.75;3.00;;;;;;;;;;5019283;28;20026;-75
2021/07/29 13:18:32;;;;;;;4.43;3.45;;;;;;;;;;5007324;28;20512;-73
2021/07/29 13:20:57;;;;;;;5.13;3.13;;;;;;;;;;5002837;28;20437;-74
2021/07/29 13:23:25;;;;;;;8.98;3.60;;;;;;;;;;5002061;28;20037;-74
2021/07/29 13:25:51;;;;;;;4.20;3.17;;;;;;;;;;4993864;28;20048;-74
2021/07/29 13:28:20;;;;;;;3.88;2.88;;;;;;;;;;5000721;28;20034;-74
2021/07/29 13:30:47;;;;;;;5.25;2.83;;;;;;;;;;5004352;28;20030;-74
2021/07/29 13:33:14;;;;;;;4.95;3.08;;;;;;;;;;4989155;28;20084;-73
2021/07/29 13:35:40;;;;;;;4.68;3.00;;;;;;;;;;4998402;28;20026;-73
2021/07/29 13:38:06;;;;;;;3.70;3.00;;;;;;;;;;5016029;28;20060;-74
2021/07/29 13:40:32;;;;;;;6.35;3.13;;;;;;;;;;5047484;28;20064;-74
2021/07/29 13:42:59;;;;;;;4.55;3.33;;;;;;;;;;5045567;28;20126;-75
2021/07/29 13:45:25;;;;;;;5.00;3.03;;;;;;;;;;5039046;28;20569;-73
2021/07/29 13:47:55;;;;;;;4.32;2.90;;;;;;;;;;5042013;28;20036;-74
2021/07/29 13:50:26;;;;;;;4.03;3.28;;;;;;;;;;5042862;28;20031;-75
2021/07/29 13:52:54;;;;;;;4.72;3.10;;;;;;;;;;5042230;28;20681;-75
2021/07/29 13:55:21;;;;;;;5.00;2.80;;;;;;;;;;5038627;28;20071;-74
2021/07/29 13:57:47;;;;;;;4.93;3.25;;;;;;;;;;5040066;28;20037;-75
2021/07/29 14:00:14;;;;;;;4.65;3.10;;;;;;;;;;5046741;28;20557;-74
2021/07/29 14:02:39;;;;;;;5.22;2.97;;;;;;;;;;5047801;28;20115;-74
2021/07/29 14:05:10;;;;;;;5.82;3.20;;;;;;;;;;5039378;28;20104;-74
2021/07/29 14:07:37;;;;;;;6.95;3.03;;;;;;;;;;5047021;28;20139;-74
2021/07/29 14:10:04;;;;;;;8.10;2.90;;;;;;;;;;5055076;28;20083;-75
2021/07/29 14:12:30;;;;;;;4.30;3.05;;;;;;;;;;5038763;28;20029;-74
2021/07/29 14:15:00;;;;;;;4.45;3.42;;;;;;;;;;5044907;28;20133;-74
2021/07/29 14:17:32;;;;;;;5.63;3.10;;;;;;;;;;5046661;28;20063;-74
2021/07/29 14:20:06;;;;;;;4.28;3.40;;;;;;;;;;5043824;28;20033;-74
2021/07/29 14:25:15;;;;;;;9.38;3.53;;;;;;;;;;5041354;28;20546;-73
2021/07/29 14:27:41;;;;;;;7.05;2.90;;;;;;;;;;5047387;28;20040;-74
2021/07/29 14:30:07;;;;;;;9.90;3.10;;;;;;;;;;5045116;28;20028;-75
2021/07/29 14:32:32;;;;;;;6.22;2.80;;;;;;;;;;5047604;28;20116;-74
2021/07/29 14:34:58;;;;;;;5.78;3.35;;;;;;;;;;5043123;28;20775;-74
2021/07/29 14:37:27;;;;;;;8.48;2.90;;;;;;;;;;5050030;28;20477;-74
2021/07/29 14:39:56;;;;;;;4.03;3.30;;;;;;;;;;5047078;28;20087;-75
2021/07/29 14:42:23;;;;;;;4.72;2.75;;;;;;;;;;5037964;28;20053;-75
2021/07/29 14:44:55;;;;;;;3.38;2.60;;;;;;;;;;5042455;28;20068;-73